Hobbs, New Mexico
Current Conditions -  °F | °C
As of 11:50 AM on Saturday 25 Oct 2014 (Local Time) from KHOB Reporting Station
Clear Clear  
Wind Chill: 27°   Ceiling: Unl
Heat Index: 27°   Visibility: 10mi
Dew Point: 12°   Wind: 12mph
Humidity: 39%   Direction: 170°S
Pressure: 30.22"   Gusts: NA
Location:  32.7°N, 103.12°W
Report Text: KHOB 251750Z 17010KT 10SM SKC 27/12 A3022
Loading
Personal Weather Stations






























Interactive Weather Map New forecast layout! Learn more

10-Day Weather Forecast

Advertisements
Track Severe Weather on mobile